sensor_id;sensor_type;location;lat;lon;timestamp;temperature;humidity
18882;DHT22;9573;50.948;11.600;2023-01-19T00:00:34;-3.60;99.90
18882;DHT22;9573;50.948;11.600;2023-01-19T00:03:02;-3.70;99.90
18882;DHT22;9573;50.948;11.600;2023-01-19T00:05:30;-3.70;99.90
18882;DHT22;9573;50.948;11.600;2023-01-19T00:07:58;-3.70;99.90
18882;DHT22;9573;50.948;11.600;2023-01-19T00:10:40;-3.70;99.90
18882;DHT22;9573;50.948;11.600;2023-01-19T00:13:08;-3.70;99.90
18882;DHT22;9573;50.948;11.600;2023-01-19T00:15:35;-3.70;99.90
18882;DHT22;9573;50.948;11.600;2023-01-19T00:18:03;-3.70;99.90
18882;DHT22;9573;50.948;11.600;2023-01-19T00:20:30;-3.70;99.90
18882;DHT22;9573;50.948;11.600;2023-01-19T00:23:00;-3.70;99.90
18882;DHT22;9573;50.948;11.600;2023-01-19T00:25:27;-3.70;99.90
18882;DHT22;9573;50.948;11.600;2023-01-19T00:27:55;-3.70;99.90
18882;DHT22;9573;50.948;11.600;2023-01-19T00:30:22;-3.80;99.90
18882;DHT22;9573;50.948;11.600;2023-01-19T00:32:49;-3.80;99.90
18882;DHT22;9573;50.948;11.600;2023-01-19T00:35:17;-3.80;99.90
18882;DHT22;9573;50.948;11.600;2023-01-19T00:37:44;-3.80;99.90
18882;DHT22;9573;50.948;11.600;2023-01-19T00:40:11;-3.90;99.90
18882;DHT22;9573;50.948;11.600;2023-01-19T00:42:39;-3.90;99.90
18882;DHT22;9573;50.948;11.600;2023-01-19T00:45:11;-3.90;99.90
18882;DHT22;9573;50.948;11.600;2023-01-19T00:47:39;-3.90;99.90
18882;DHT22;9573;50.948;11.600;2023-01-19T00:50:08;-3.90;99.90
18882;DHT22;9573;50.948;11.600;2023-01-19T00:52:37;-3.90;99.90
18882;DHT22;9573;50.948;11.600;2023-01-19T00:55:06;-4.00;99.90
18882;DHT22;9573;50.948;11.600;2023-01-19T00:57:34;-4.00;99.90
18882;DHT22;9573;50.948;11.600;2023-01-19T01:00:02;-4.00;99.90
18882;DHT22;9573;50.948;11.600;2023-01-19T01:02:32;-4.00;99.90
18882;DHT22;9573;50.948;11.600;2023-01-19T01:04:59;-4.10;99.90
18882;DHT22;9573;50.948;11.600;2023-01-19T01:07:27;-4.10;99.90
18882;DHT22;9573;50.948;11.600;2023-01-19T01:09:55;-4.10;99.90
18882;DHT22;9573;50.948;11.600;2023-01-19T01:12:22;-4.10;99.90
18882;DHT22;9573;50.948;11.600;2023-01-19T01:14:49;-4.10;99.90
18882;DHT22;9573;50.948;11.600;2023-01-19T01:17:17;-4.10;99.90
18882;DHT22;9573;50.948;11.600;2023-01-19T01:19:50;-4.00;99.90
18882;DHT22;9573;50.948;11.600;2023-01-19T01:22:18;-4.30;99.90
18882;DHT22;9573;50.948;11.600;2023-01-19T01:24:45;-3.90;99.90
18882;DHT22;9573;50.948;11.600;2023-01-19T01:27:12;-3.90;99.90
18882;DHT22;9573;50.948;11.600;2023-01-19T01:29:39;-3.90;99.90
18882;DHT22;9573;50.948;11.600;2023-01-19T01:32:11;-3.80;99.90
18882;DHT22;9573;50.948;11.600;2023-01-19T01:34:38;-3.90;99.90
18882;DHT22;9573;50.948;11.600;2023-01-19T01:37:07;-3.90;99.90
18882;DHT22;9573;50.948;11.600;2023-01-19T01:39:34;-3.90;99.90
18882;DHT22;9573;50.948;11.600;2023-01-19T01:42:03;-3.90;99.90
18882;DHT22;9573;50.948;11.600;2023-01-19T01:44:44;-3.90;99.90
18882;DHT22;9573;50.948;11.600;2023-01-19T01:47:22;-3.90;99.90
18882;DHT22;9573;50.948;11.600;2023-01-19T01:49:56;-3.90;99.90
18882;DHT22;9573;50.948;11.600;2023-01-19T01:52:37;-3.90;99.90
18882;DHT22;9573;50.948;11.600;2023-01-19T01:55:07;-3.90;99.90
18882;DHT22;9573;50.948;11.600;2023-01-19T01:57:37;-3.90;99.90
18882;DHT22;9573;50.948;11.600;2023-01-19T02:00:06;-3.90;99.90
18882;DHT22;9573;50.948;11.600;2023-01-19T02:02:35;-3.90;99.90
18882;DHT22;9573;50.948;11.600;2023-01-19T02:05:21;-4.00;99.90
18882;DHT22;9573;50.948;11.600;2023-01-19T02:07:55;-4.00;99.90
18882;DHT22;9573;50.948;11.600;2023-01-19T02:10:43;-4.00;99.90
18882;DHT22;9573;50.948;11.600;2023-01-19T02:13:29;-3.90;99.90
18882;DHT22;9573;50.948;11.600;2023-01-19T02:15:59;-3.90;99.90
18882;DHT22;9573;50.948;11.600;2023-01-19T02:18:29;-3.90;99.90
18882;DHT22;9573;50.948;11.600;2023-01-19T02:21:07;-4.00;99.90
18882;DHT22;9573;50.948;11.600;2023-01-19T02:23:43;-4.00;99.90
18882;DHT22;9573;50.948;11.600;2023-01-19T02:26:14;-4.00;99.90
18882;DHT22;9573;50.948;11.600;2023-01-19T02:28:47;-4.00;99.90
18882;DHT22;9573;50.948;11.600;2023-01-19T02:31:16;-4.00;99.90
18882;DHT22;9573;50.948;11.600;2023-01-19T02:33:43;-4.00;99.90
18882;DHT22;9573;50.948;11.600;2023-01-19T02:36:12;-4.10;99.90
18882;DHT22;9573;50.948;11.600;2023-01-19T02:38:43;-4.10;99.90
18882;DHT22;9573;50.948;11.600;2023-01-19T02:41:15;-4.10;99.90
18882;DHT22;9573;50.948;11.600;2023-01-19T02:43:46;-4.10;99.90
18882;DHT22;9573;50.948;11.600;2023-01-19T02:46:14;-4.20;99.90
18882;DHT22;9573;50.948;11.600;2023-01-19T02:48:41;-4.20;99.90
18882;DHT22;9573;50.948;11.600;2023-01-19T02:51:11;-4.20;99.90
18882;DHT22;9573;50.948;11.600;2023-01-19T02:54:08;-4.30;99.90
18882;DHT22;9573;50.948;11.600;2023-01-19T02:56:52;-4.30;99.90
18882;DHT22;9573;50.948;11.600;2023-01-19T02:59:32;-4.30;99.90
18882;DHT22;9573;50.948;11.600;2023-01-19T03:02:20;-4.40;99.90
18882;DHT22;9573;50.948;11.600;2023-01-19T03:05:09;-4.40;99.90
18882;DHT22;9573;50.948;11.600;2023-01-19T03:07:51;-4.40;99.90
18882;DHT22;9573;50.948;11.600;2023-01-19T03:10:29;-4.50;99.90
18882;DHT22;9573;50.948;11.600;2023-01-19T03:13:00;-4.50;99.90
18882;DHT22;9573;50.948;11.600;2023-01-19T03:15:33;-4.50;99.90
18882;DHT22;9573;50.948;11.600;2023-01-19T03:18:05;-4.50;99.90
18882;DHT22;9573;50.948;11.600;2023-01-19T03:20:35;-4.50;99.90
18882;DHT22;9573;50.948;11.600;2023-01-19T03:23:06;-4.60;99.90
18882;DHT22;9573;50.948;11.600;2023-01-19T03:25:38;-4.60;99.90
18882;DHT22;9573;50.948;11.600;2023-01-19T03:28:07;-4.60;99.90
18882;DHT22;9573;50.948;11.600;2023-01-19T03:30:36;-4.60;99.90
18882;DHT22;9573;50.948;11.600;2023-01-19T03:33:09;-4.50;99.90
18882;DHT22;9573;50.948;11.600;2023-01-19T03:35:42;-4.50;99.90
18882;DHT22;9573;50.948;11.600;2023-01-19T03:38:20;-4.60;99.90
18882;DHT22;9573;50.948;11.600;2023-01-19T03:40:54;-4.60;99.90
18882;DHT22;9573;50.948;11.600;2023-01-19T03:43:24;-4.60;99.90
18882;DHT22;9573;50.948;11.600;2023-01-19T03:45:54;-4.60;99.90
18882;DHT22;9573;50.948;11.600;2023-01-19T03:48:22;-4.60;99.90
18882;DHT22;9573;50.948;11.600;2023-01-19T03:50:50;-4.50;99.90
18882;DHT22;9573;50.948;11.600;2023-01-19T03:53:19;-4.50;99.90
18882;DHT22;9573;50.948;11.600;2023-01-19T03:55:50;-4.50;99.90
18882;DHT22;9573;50.948;11.600;2023-01-19T03:58:18;-4.60;99.90
18882;DHT22;9573;50.948;11.600;2023-01-19T04:00:46;-4.60;99.90
18882;DHT22;9573;50.948;11.600;2023-01-19T04:03:15;-4.60;99.90
18882;DHT22;9573;50.948;11.600;2023-01-19T04:05:43;-4.60;99.90
18882;DHT22;9573;50.948;11.600;2023-01-19T04:08:11;-4.60;99.90
18882;DHT22;9573;50.948;11.600;2023-01-19T04:10:38;-4.60;99.90
18882;DHT22;9573;50.948;11.600;2023-01-19T04:13:07;-4.60;99.90
18882;DHT22;9573;50.948;11.600;2023-01-19T04:15:34;-4.60;99.90
18882;DHT22;9573;50.948;11.600;2023-01-19T04:18:01;-4.70;99.90
18882;DHT22;9573;50.948;11.600;2023-01-19T04:20:28;-4.70;99.90
18882;DHT22;9573;50.948;11.600;2023-01-19T04:22:58;-4.70;99.90
18882;DHT22;9573;50.948;11.600;2023-01-19T04:25:26;-4.70;99.90
18882;DHT22;9573;50.948;11.600;2023-01-19T04:27:54;-4.70;99.90
18882;DHT22;9573;50.948;11.600;2023-01-19T04:30:24;-4.70;99.90
18882;DHT22;9573;50.948;11.600;2023-01-19T04:32:51;-4.70;99.90
18882;DHT22;9573;50.948;11.600;2023-01-19T04:35:20;-4.70;99.90
18882;DHT22;9573;50.948;11.600;2023-01-19T04:37:48;-4.70;99.90
18882;DHT22;9573;50.948;11.600;2023-01-19T04:40:15;-4.70;99.90
18882;DHT22;9573;50.948;11.600;2023-01-19T04:42:43;-4.70;99.90
18882;DHT22;9573;50.948;11.600;2023-01-19T04:45:11;-4.70;99.90
18882;DHT22;9573;50.948;11.600;2023-01-19T04:47:40;-4.70;99.90
18882;DHT22;9573;50.948;11.600;2023-01-19T04:50:08;-4.80;99.90
18882;DHT22;9573;50.948;11.600;2023-01-19T04:52:36;-4.80;99.90
18882;DHT22;9573;50.948;11.600;2023-01-19T04:55:05;-4.80;99.90
18882;DHT22;9573;50.948;11.600;2023-01-19T04:57:32;-3.00;99.90
18882;DHT22;9573;50.948;11.600;2023-01-19T04:59:59;-4.90;99.90
18882;DHT22;9573;50.948;11.600;2023-01-19T05:02:27;-4.90;99.90
18882;DHT22;9573;50.948;11.600;2023-01-19T05:04:55;-4.90;99.90
18882;DHT22;9573;50.948;11.600;2023-01-19T05:07:22;-4.80;99.90
18882;DHT22;9573;50.948;11.600;2023-01-19T05:09:49;-4.90;99.90
18882;DHT22;9573;50.948;11.600;2023-01-19T05:12:17;-4.90;99.90
18882;DHT22;9573;50.948;11.600;2023-01-19T05:14:44;-4.90;99.90
18882;DHT22;9573;50.948;11.600;2023-01-19T05:17:11;-3.80;99.90
18882;DHT22;9573;50.948;11.600;2023-01-19T05:19:38;-4.90;99.90
18882;DHT22;9573;50.948;11.600;2023-01-19T05:22:07;-4.90;99.90
18882;DHT22;9573;50.948;11.600;2023-01-19T05:24:34;-4.90;99.90
18882;DHT22;9573;50.948;11.600;2023-01-19T05:27:01;-4.90;99.90
18882;DHT22;9573;50.948;11.600;2023-01-19T05:29:29;-4.80;99.90
18882;DHT22;9573;50.948;11.600;2023-01-19T05:31:56;-4.80;99.90
18882;DHT22;9573;50.948;11.600;2023-01-19T05:34:23;-4.80;99.90
18882;DHT22;9573;50.948;11.600;2023-01-19T05:36:50;-4.80;99.90
18882;DHT22;9573;50.948;11.600;2023-01-19T05:39:19;-4.80;99.90
18882;DHT22;9573;50.948;11.600;2023-01-19T05:41:46;-4.80;99.90
18882;DHT22;9573;50.948;11.600;2023-01-19T05:44:13;-4.80;99.90
18882;DHT22;9573;50.948;11.600;2023-01-19T05:46:40;-4.90;99.90
18882;DHT22;9573;50.948;11.600;2023-01-19T05:49:07;-4.90;99.90
18882;DHT22;9573;50.948;11.600;2023-01-19T05:51:34;-4.90;99.90
18882;DHT22;9573;50.948;11.600;2023-01-19T05:54:04;-4.90;99.90
18882;DHT22;9573;50.948;11.600;2023-01-19T05:56:33;-4.90;99.90
18882;DHT22;9573;50.948;11.600;2023-01-19T05:59:01;-4.90;99.90
18882;DHT22;9573;50.948;11.600;2023-01-19T06:01:29;-4.90;99.90
18882;DHT22;9573;50.948;11.600;2023-01-19T06:03:57;-4.90;99.90
18882;DHT22;9573;50.948;11.600;2023-01-19T06:06:24;-4.80;99.90
18882;DHT22;9573;50.948;11.600;2023-01-19T06:08:52;-4.80;99.90
18882;DHT22;9573;50.948;11.600;2023-01-19T06:11:19;-4.80;99.90
18882;DHT22;9573;50.948;11.600;2023-01-19T06:13:48;-4.40;99.90
18882;DHT22;9573;50.948;11.600;2023-01-19T06:16:15;-4.80;99.90
18882;DHT22;9573;50.948;11.600;2023-01-19T06:18:42;-4.80;99.90
18882;DHT22;9573;50.948;11.600;2023-01-19T06:21:09;-4.70;99.90
18882;DHT22;9573;50.948;11.600;2023-01-19T06:23:38;-4.70;99.90
18882;DHT22;9573;50.948;11.600;2023-01-19T06:26:07;-4.60;99.90
18882;DHT22;9573;50.948;11.600;2023-01-19T06:28:34;-4.50;99.90
18882;DHT22;9573;50.948;11.600;2023-01-19T06:31:03;-4.50;99.90
18882;DHT22;9573;50.948;11.600;2023-01-19T06:33:30;-4.40;99.90
18882;DHT22;9573;50.948;11.600;2023-01-19T06:35:58;-4.30;99.90
18882;DHT22;9573;50.948;11.600;2023-01-19T06:38:25;-4.30;99.90
18882;DHT22;9573;50.948;11.600;2023-01-19T06:40:54;-4.20;99.90
18882;DHT22;9573;50.948;11.600;2023-01-19T06:43:23;-4.20;99.90
18882;DHT22;9573;50.948;11.600;2023-01-19T06:45:51;-4.20;99.90
18882;DHT22;9573;50.948;11.600;2023-01-19T06:48:20;-4.10;99.90
18882;DHT22;9573;50.948;11.600;2023-01-19T06:50:48;-4.10;99.90
18882;DHT22;9573;50.948;11.600;2023-01-19T06:53:16;-3.40;99.90
18882;DHT22;9573;50.948;11.600;2023-01-19T06:55:45;-3.80;99.90
18882;DHT22;9573;50.948;11.600;2023-01-19T06:58:12;-3.90;99.90
18882;DHT22;9573;50.948;11.600;2023-01-19T07:00:39;-4.00;99.90
18882;DHT22;9573;50.948;11.600;2023-01-19T07:03:07;-4.00;99.90
18882;DHT22;9573;50.948;11.600;2023-01-19T07:05:36;-4.00;99.90
18882;DHT22;9573;50.948;11.600;2023-01-19T07:08:04;-4.00;99.90
18882;DHT22;9573;50.948;11.600;2023-01-19T07:10:31;-4.00;99.90
18882;DHT22;9573;50.948;11.600;2023-01-19T07:12:58;-4.00;99.90
18882;DHT22;9573;50.948;11.600;2023-01-19T07:15:25;-3.90;99.90
18882;DHT22;9573;50.948;11.600;2023-01-19T07:17:56;-3.90;99.90
18882;DHT22;9573;50.948;11.600;2023-01-19T07:20:23;-3.90;99.90
18882;DHT22;9573;50.948;11.600;2023-01-19T07:22:55;-2.80;99.90
18882;DHT22;9573;50.948;11.600;2023-01-19T07:25:23;-3.90;99.90
18882;DHT22;9573;50.948;11.600;2023-01-19T07:27:51;-3.80;99.90
18882;DHT22;9573;50.948;11.600;2023-01-19T07:30:18;-3.80;99.90
18882;DHT22;9573;50.948;11.600;2023-01-19T07:32:45;-3.70;99.90
18882;DHT22;9573;50.948;11.600;2023-01-19T07:35:14;-3.70;99.90
18882;DHT22;9573;50.948;11.600;2023-01-19T07:37:46;-3.60;99.90
18882;DHT22;9573;50.948;11.600;2023-01-19T07:40:15;-3.60;99.90
18882;DHT22;9573;50.948;11.600;2023-01-19T07:42:45;-3.60;99.90
18882;DHT22;9573;50.948;11.600;2023-01-19T07:45:13;-3.50;99.90
18882;DHT22;9573;50.948;11.600;2023-01-19T07:47:42;-3.50;99.90
18882;DHT22;9573;50.948;11.600;2023-01-19T07:50:10;-3.40;99.90
18882;DHT22;9573;50.948;11.600;2023-01-19T07:52:38;-3.30;99.90
18882;DHT22;9573;50.948;11.600;2023-01-19T07:55:07;-3.10;99.90
18882;DHT22;9573;50.948;11.600;2023-01-19T07:57:36;-4.40;99.90
18882;DHT22;9573;50.948;11.600;2023-01-19T08:00:04;-2.00;99.90
18882;DHT22;9573;50.948;11.600;2023-01-19T08:02:33;-1.90;99.90
18882;DHT22;9573;50.948;11.600;2023-01-19T08:05:01;-2.00;99.90
18882;DHT22;9573;50.948;11.600;2023-01-19T08:07:28;-2.10;99.90
18882;DHT22;9573;50.948;11.600;2023-01-19T08:09:56;-2.10;99.90
18882;DHT22;9573;50.948;11.600;2023-01-19T08:12:23;-1.90;99.90
18882;DHT22;9573;50.948;11.600;2023-01-19T08:14:51;-2.10;99.90
18882;DHT22;9573;50.948;11.600;2023-01-19T08:17:18;-1.70;99.90
18882;DHT22;9573;50.948;11.600;2023-01-19T08:19:45;-1.30;99.90
18882;DHT22;9573;50.948;11.600;2023-01-19T08:22:13;-0.60;99.90
18882;DHT22;9573;50.948;11.600;2023-01-19T08:24:40;0.30;99.90
18882;DHT22;9573;50.948;11.600;2023-01-19T08:27:07;1.20;99.90
18882;DHT22;9573;50.948;11.600;2023-01-19T08:29:35;2.30;99.90
18882;DHT22;9573;50.948;11.600;2023-01-19T08:32:04;4.10;99.90
18882;DHT22;9573;50.948;11.600;2023-01-19T08:34:31;5.70;99.90
18882;DHT22;9573;50.948;11.600;2023-01-19T08:36:58;6.90;99.90
18882;DHT22;9573;50.948;11.600;2023-01-19T08:39:25;7.80;99.90
18882;DHT22;9573;50.948;11.600;2023-01-19T08:41:53;8.10;99.90
18882;DHT22;9573;50.948;11.600;2023-01-19T08:44:20;8.80;99.90
18882;DHT22;9573;50.948;11.600;2023-01-19T08:46:47;9.20;99.90
18882;DHT22;9573;50.948;11.600;2023-01-19T08:49:16;9.30;99.90
18882;DHT22;9573;50.948;11.600;2023-01-19T08:51:43;9.80;99.90
18882;DHT22;9573;50.948;11.600;2023-01-19T08:54:12;10.00;99.90
18882;DHT22;9573;50.948;11.600;2023-01-19T08:56:40;10.30;99.90
18882;DHT22;9573;50.948;11.600;2023-01-19T08:59:07;10.60;99.90
18882;DHT22;9573;50.948;11.600;2023-01-19T09:01:34;10.50;99.90
18882;DHT22;9573;50.948;11.600;2023-01-19T09:04:02;10.80;99.90
18882;DHT22;9573;50.948;11.600;2023-01-19T09:06:31;10.70;99.20
18882;DHT22;9573;50.948;11.600;2023-01-19T09:08:58;11.00;97.90
18882;DHT22;9573;50.948;11.600;2023-01-19T09:11:25;10.80;97.30
18882;DHT22;9573;50.948;11.600;2023-01-19T09:13:53;10.60;97.20
18882;DHT22;9573;50.948;11.600;2023-01-19T09:16:20;10.50;97.00
18882;DHT22;9573;50.948;11.600;2023-01-19T09:18:47;10.40;97.10
18882;DHT22;9573;50.948;11.600;2023-01-19T09:21:14;10.10;96.70
18882;DHT22;9573;50.948;11.600;2023-01-19T09:23:44;10.00;97.10
18882;DHT22;9573;50.948;11.600;2023-01-19T09:26:11;9.60;97.20
18882;DHT22;9573;50.948;11.600;2023-01-19T09:28:38;9.40;98.00
18882;DHT22;9573;50.948;11.600;2023-01-19T09:31:06;9.40;98.10
18882;DHT22;9573;50.948;11.600;2023-01-19T09:33:34;8.90;98.60
18882;DHT22;9573;50.948;11.600;2023-01-19T09:36:01;8.50;99.40
18882;DHT22;9573;50.948;11.600;2023-01-19T09:38:28;8.00;99.90
18882;DHT22;9573;50.948;11.600;2023-01-19T09:40:59;7.30;99.90
18882;DHT22;9573;50.948;11.600;2023-01-19T09:43:34;7.20;99.90
18882;DHT22;9573;50.948;11.600;2023-01-19T09:46:09;6.50;99.90
18882;DHT22;9573;50.948;11.600;2023-01-19T09:48:50;6.40;99.90
18882;DHT22;9573;50.948;11.600;2023-01-19T09:51:20;6.40;99.90
18882;DHT22;9573;50.948;11.600;2023-01-19T09:54:01;6.50;99.90
18882;DHT22;9573;50.948;11.600;2023-01-19T09:56:33;6.80;99.90
18882;DHT22;9573;50.948;11.600;2023-01-19T09:59:01;7.50;99.90
18882;DHT22;9573;50.948;11.600;2023-01-19T10:01:39;7.40;99.90
18882;DHT22;9573;50.948;11.600;2023-01-19T10:04:26;7.40;99.90
18882;DHT22;9573;50.948;11.600;2023-01-19T10:07:09;7.40;99.90
18882;DHT22;9573;50.948;11.600;2023-01-19T10:09:48;7.50;99.90
18882;DHT22;9573;50.948;11.600;2023-01-19T10:12:31;7.80;99.90
18882;DHT22;9573;50.948;11.600;2023-01-19T10:15:19;8.00;99.90
18882;DHT22;9573;50.948;11.600;2023-01-19T10:18:06;8.40;99.90
18882;DHT22;9573;50.948;11.600;2023-01-19T10:20:40;8.80;99.90
18882;DHT22;9573;50.948;11.600;2023-01-19T10:23:27;9.60;99.90
18882;DHT22;9573;50.948;11.600;2023-01-19T10:26:07;10.00;99.70
18882;DHT22;9573;50.948;11.600;2023-01-19T10:28:37;10.70;98.70
18882;DHT22;9573;50.948;11.600;2023-01-19T10:31:06;11.20;97.40
18882;DHT22;9573;50.948;11.600;2023-01-19T10:33:34;11.00;97.10
18882;DHT22;9573;50.948;11.600;2023-01-19T10:36:09;10.90;97.10
18882;DHT22;9573;50.948;11.600;2023-01-19T10:38:42;11.50;96.20
18882;DHT22;9573;50.948;11.600;2023-01-19T10:41:14;12.30;94.60
18882;DHT22;9573;50.948;11.600;2023-01-19T10:43:46;13.20;93.60
18882;DHT22;9573;50.948;11.600;2023-01-19T10:46:29;12.70;92.40
18882;DHT22;9573;50.948;11.600;2023-01-19T10:49:00;12.10;92.50
18882;DHT22;9573;50.948;11.600;2023-01-19T10:51:27;11.80;92.60
18882;DHT22;9573;50.948;11.600;2023-01-19T10:53:57;11.40;93.60
18882;DHT22;9573;50.948;11.600;2023-01-19T10:56:29;11.60;93.30
18882;DHT22;9573;50.948;11.600;2023-01-19T10:59:01;11.90;93.20
18882;DHT22;9573;50.948;11.600;2023-01-19T11:01:29;12.10;92.70
18882;DHT22;9573;50.948;11.600;2023-01-19T11:04:00;12.30;92.30
18882;DHT22;9573;50.948;11.600;2023-01-19T11:06:45;12.40;91.30
18882;DHT22;9573;50.948;11.600;2023-01-19T11:09:16;12.30;92.00
18882;DHT22;9573;50.948;11.600;2023-01-19T11:11:46;13.10;91.20
18882;DHT22;9573;50.948;11.600;2023-01-19T11:14:18;13.30;90.00
18882;DHT22;9573;50.948;11.600;2023-01-19T11:16:48;13.00;90.10
18882;DHT22;9573;50.948;11.600;2023-01-19T11:19:20;12.90;90.00
18882;DHT22;9573;50.948;11.600;2023-01-19T11:22:08;12.70;90.10
18882;DHT22;9573;50.948;11.600;2023-01-19T11:24:38;12.30;90.30
18882;DHT22;9573;50.948;11.600;2023-01-19T11:27:05;12.20;90.50
18882;DHT22;9573;50.948;11.600;2023-01-19T11:29:35;12.40;90.60
18882;DHT22;9573;50.948;11.600;2023-01-19T11:32:11;12.10;90.60
18882;DHT22;9573;50.948;11.600;2023-01-19T11:34:44;12.40;90.50
18882;DHT22;9573;50.948;11.600;2023-01-19T11:37:26;12.10;90.50
18882;DHT22;9573;50.948;11.600;2023-01-19T11:39:56;12.40;90.50
18882;DHT22;9573;50.948;11.600;2023-01-19T11:42:24;12.10;90.40
18882;DHT22;9573;50.948;11.600;2023-01-19T11:45:00;11.60;91.20
18882;DHT22;9573;50.948;11.600;2023-01-19T11:47:36;11.30;91.90
18882;DHT22;9573;50.948;11.600;2023-01-19T11:50:12;11.10;92.60
18882;DHT22;9573;50.948;11.600;2023-01-19T11:52:44;10.70;93.00
18882;DHT22;9573;50.948;11.600;2023-01-19T11:55:17;10.50;93.00
18882;DHT22;9573;50.948;11.600;2023-01-19T11:57:50;10.30;93.70
18882;DHT22;9573;50.948;11.600;2023-01-19T12:00:24;10.40;93.80
18882;DHT22;9573;50.948;11.600;2023-01-19T12:02:57;10.80;93.20
18882;DHT22;9573;50.948;11.600;2023-01-19T12:05:30;10.90;92.70
18882;DHT22;9573;50.948;11.600;2023-01-19T12:08:02;10.80;92.70
18882;DHT22;9573;50.948;11.600;2023-01-19T12:10:34;11.40;92.30
18882;DHT22;9573;50.948;11.600;2023-01-19T12:13:02;11.50;92.20
18882;DHT22;9573;50.948;11.600;2023-01-19T12:15:34;11.60;91.70
18882;DHT22;9573;50.948;11.600;2023-01-19T12:18:04;11.80;91.20
18882;DHT22;9573;50.948;11.600;2023-01-19T12:20:35;12.00;90.70
18882;DHT22;9573;50.948;11.600;2023-01-19T12:23:22;12.00;90.00
18882;DHT22;9573;50.948;11.600;2023-01-19T12:26:05;12.10;89.20
18882;DHT22;9573;50.948;11.600;2023-01-19T12:28:46;11.40;89.20
18882;DHT22;9573;50.948;11.600;2023-01-19T12:31:17;11.30;90.50
18882;DHT22;9573;50.948;11.600;2023-01-19T12:33:46;11.40;90.00
18882;DHT22;9573;50.948;11.600;2023-01-19T12:36:37;11.50;89.40
18882;DHT22;9573;50.948;11.600;2023-01-19T12:39:13;11.00;88.90
18882;DHT22;9573;50.948;11.600;2023-01-19T12:41:43;10.40;90.50
18882;DHT22;9573;50.948;11.600;2023-01-19T12:44:24;10.50;91.00
18882;DHT22;9573;50.948;11.600;2023-01-19T12:46:57;11.00;90.40
18882;DHT22;9573;50.948;11.600;2023-01-19T12:49:31;11.30;89.90
18882;DHT22;9573;50.948;11.600;2023-01-19T12:52:18;10.40;90.70
18882;DHT22;9573;50.948;11.600;2023-01-19T12:54:54;9.50;91.60
18882;DHT22;9573;50.948;11.600;2023-01-19T12:57:27;8.90;92.60
18882;DHT22;9573;50.948;11.600;2023-01-19T12:59:58;8.50;93.60
18882;DHT22;9573;50.948;11.600;2023-01-19T13:02:52;9.00;93.70
18882;DHT22;9573;50.948;11.600;2023-01-19T13:08:28;9.20;93.20
18882;DHT22;9573;50.948;11.600;2023-01-19T13:11:22;9.10;93.60
18882;DHT22;9573;50.948;11.600;2023-01-19T13:17:02;8.00;94.70
18882;DHT22;9573;50.948;11.600;2023-01-19T13:19:47;7.20;95.90
18882;DHT22;9573;50.948;11.600;2023-01-19T13:25:51;6.20;98.20
18882;DHT22;9573;50.948;11.600;2023-01-19T13:28:42;5.80;99.20
18882;DHT22;9573;50.948;11.600;2023-01-19T13:31:11;5.60;99.80
18882;DHT22;9573;50.948;11.600;2023-01-19T13:33:45;5.40;99.90
18882;DHT22;9573;50.948;11.600;2023-01-19T13:36:22;5.20;99.90
18882;DHT22;9573;50.948;11.600;2023-01-19T13:38:52;5.10;99.90
18882;DHT22;9573;50.948;11.600;2023-01-19T13:41:26;4.90;99.90
18882;DHT22;9573;50.948;11.600;2023-01-19T13:43:59;4.70;99.90
18882;DHT22;9573;50.948;11.600;2023-01-19T13:46:28;4.40;99.90
18882;DHT22;9573;50.948;11.600;2023-01-19T13:48:57;4.20;99.90
18882;DHT22;9573;50.948;11.600;2023-01-19T13:51:28;4.20;99.90
18882;DHT22;9573;50.948;11.600;2023-01-19T13:53:56;4.00;99.90
18882;DHT22;9573;50.948;11.600;2023-01-19T13:56:27;4.00;99.90
18882;DHT22;9573;50.948;11.600;2023-01-19T13:59:00;4.00;99.90
18882;DHT22;9573;50.948;11.600;2023-01-19T14:01:36;3.90;99.90
18882;DHT22;9573;50.948;11.600;2023-01-19T14:04:05;3.90;99.90
18882;DHT22;9573;50.948;11.600;2023-01-19T14:06:45;4.00;99.90
18882;DHT22;9573;50.948;11.600;2023-01-19T14:09:17;3.80;99.90
18882;DHT22;9573;50.948;11.600;2023-01-19T14:12:02;3.70;99.90
18882;DHT22;9573;50.948;11.600;2023-01-19T14:14:31;3.80;99.90
18882;DHT22;9573;50.948;11.600;2023-01-19T14:16:58;3.80;99.90
18882;DHT22;9573;50.948;11.600;2023-01-19T14:19:26;3.70;99.90
18882;DHT22;9573;50.948;11.600;2023-01-19T14:22:03;3.60;99.90
18882;DHT22;9573;50.948;11.600;2023-01-19T14:24:31;3.60;99.90
18882;DHT22;9573;50.948;11.600;2023-01-19T14:27:18;3.70;99.90
18882;DHT22;9573;50.948;11.600;2023-01-19T14:29:48;3.70;99.90
18882;DHT22;9573;50.948;11.600;2023-01-19T14:32:21;3.80;99.90
18882;DHT22;9573;50.948;11.600;2023-01-19T14:34:51;3.70;99.90
18882;DHT22;9573;50.948;11.600;2023-01-19T14:37:45;3.60;99.90
18882;DHT22;9573;50.948;11.600;2023-01-19T14:40:18;3.50;99.90
18882;DHT22;9573;50.948;11.600;2023-01-19T14:42:48;3.50;99.90
18882;DHT22;9573;50.948;11.600;2023-01-19T14:45:19;3.50;99.90
18882;DHT22;9573;50.948;11.600;2023-01-19T14:48:01;3.50;99.90
18882;DHT22;9573;50.948;11.600;2023-01-19T14:50:34;3.40;99.90
18882;DHT22;9573;50.948;11.600;2023-01-19T14:53:06;3.40;99.90
18882;DHT22;9573;50.948;11.600;2023-01-19T14:55:45;3.40;99.90
18882;DHT22;9573;50.948;11.600;2023-01-19T14:58:15;3.40;99.90
18882;DHT22;9573;50.948;11.600;2023-01-19T15:00:48;3.40;99.90
18882;DHT22;9573;50.948;11.600;2023-01-19T15:03:20;3.40;99.90
18882;DHT22;9573;50.948;11.600;2023-01-19T15:05:48;3.40;99.90
18882;DHT22;9573;50.948;11.600;2023-01-19T15:08:27;3.40;99.90
18882;DHT22;9573;50.948;11.600;2023-01-19T15:10:56;3.40;99.90
18882;DHT22;9573;50.948;11.600;2023-01-19T15:13:25;3.40;99.90
18882;DHT22;9573;50.948;11.600;2023-01-19T15:15:55;3.50;99.90
18882;DHT22;9573;50.948;11.600;2023-01-19T15:18:25;3.40;99.90
18882;DHT22;9573;50.948;11.600;2023-01-19T15:20:52;2.10;99.90
18882;DHT22;9573;50.948;11.600;2023-01-19T15:23:22;3.40;99.90
18882;DHT22;9573;50.948;11.600;2023-01-19T15:25:50;3.40;99.90
18882;DHT22;9573;50.948;11.600;2023-01-19T15:28:18;3.40;99.90
18882;DHT22;9573;50.948;11.600;2023-01-19T15:30:47;3.40;99.90
18882;DHT22;9573;50.948;11.600;2023-01-19T15:33:19;1.90;99.90
18882;DHT22;9573;50.948;11.600;2023-01-19T15:35:51;3.40;99.90
18882;DHT22;9573;50.948;11.600;2023-01-19T15:38:18;3.40;99.90
18882;DHT22;9573;50.948;11.600;2023-01-19T15:40:48;3.40;99.90
18882;DHT22;9573;50.948;11.600;2023-01-19T15:43:15;3.30;99.90
18882;DHT22;9573;50.948;11.600;2023-01-19T15:45:46;3.30;99.90
18882;DHT22;9573;50.948;11.600;2023-01-19T15:48:14;3.30;99.90
18882;DHT22;9573;50.948;11.600;2023-01-19T15:50:43;3.20;99.90
18882;DHT22;9573;50.948;11.600;2023-01-19T15:53:13;3.20;99.90
18882;DHT22;9573;50.948;11.600;2023-01-19T15:55:51;3.20;99.90
18882;DHT22;9573;50.948;11.600;2023-01-19T15:58:20;3.20;99.90
18882;DHT22;9573;50.948;11.600;2023-01-19T16:00:52;3.30;99.90
18882;DHT22;9573;50.948;11.600;2023-01-19T16:03:20;3.20;99.90
18882;DHT22;9573;50.948;11.600;2023-01-19T16:05:47;3.30;99.90
18882;DHT22;9573;50.948;11.600;2023-01-19T16:08:19;3.30;99.90